Time;durP1;ratioP1;P1;durP2;ratioP2;P2;SDS_P1;SDS_P2;PMS_P1;PMS_P2;Temp;Humidity;BMP_temperature;BMP_pressure;BME280_temperature;BME280_humidity;BME280_pressure;Samples;Min_cycle;Max_cycle;Signal;HPM_P1;HPM_P2
2022/01/26 00:05:44;;;;;;;1.80;1.70;;;;;;;;;;5029637;28;20197;-73
2022/01/26 00:07:09;;;;;;;2.00;1.90;;;;;;;;;;5028514;28;20214;-73
2022/01/26 00:09:56;;;;;;;1.83;1.73;;;;;;;;;;5028738;28;20567;-73
2022/01/26 00:12:43;;;;;;;2.10;1.97;;;;;;;;;;5027799;28;20283;-73
2022/01/26 00:15:31;;;;;;;1.90;1.80;;;;;;;;;;5030467;28;20623;-73
2022/01/26 00:18:22;;;;;;;1.83;1.73;;;;;;;;;;5028412;28;20606;-73
2022/01/26 00:21:15;;;;;;;2.13;1.97;;;;;;;;;;5028516;28;20711;-73
2022/01/26 00:27:10;;;;;;;1.70;1.60;;;;;;;;;;5027815;28;20225;-73
2022/01/26 00:31:12;;;;;;;1.70;1.60;;;;;;;;;;5029866;28;20211;-73
2022/01/26 00:39:16;;;;;;;2.17;1.97;;;;;;;;;;5030007;28;20803;-73
2022/01/26 00:42:03;;;;;;;1.97;1.87;;;;;;;;;;5029388;28;20601;-73
2022/01/26 00:44:50;;;;;;;1.90;1.80;;;;;;;;;;5032256;28;20271;-73
2022/01/26 00:47:37;;;;;;;1.70;1.60;;;;;;;;;;5028773;28;20215;-74
2022/01/26 00:50:24;;;;;;;1.93;1.73;;;;;;;;;;5027081;28;20211;-73
2022/01/26 00:53:13;;;;;;;1.87;1.77;;;;;;;;;;5032001;28;20238;-73
2022/01/26 00:56:00;;;;;;;2.07;1.90;;;;;;;;;;5028411;28;20570;-73
2022/01/26 00:58:47;;;;;;;1.93;1.83;;;;;;;;;;5030339;28;20693;-73
2022/01/26 01:01:34;;;;;;;1.83;1.73;;;;;;;;;;5027818;28;20313;-72
2022/01/26 01:04:21;;;;;;;1.77;1.67;;;;;;;;;;5029097;28;20209;-73
2022/01/26 01:07:15;;;;;;;1.83;1.73;;;;;;;;;;5028501;28;20299;-73
2022/01/26 01:10:04;;;;;;;1.63;1.63;;;;;;;;;;5027370;28;20800;-73
2022/01/26 01:12:55;;;;;;;2.10;2.00;;;;;;;;;;5028205;28;20279;-73
2022/01/26 01:15:43;;;;;;;2.10;2.00;;;;;;;;;;5028348;28;20284;-73
2022/01/26 01:18:38;;;;;;;2.00;1.90;;;;;;;;;;5030727;28;20206;-73
2022/01/26 01:25:18;;;;;;;1.87;1.77;;;;;;;;;;5031011;28;21042;-73
2022/01/26 01:28:27;;;;;;;1.90;1.80;;;;;;;;;;5032380;28;20272;-73
2022/01/26 01:31:19;;;;;;;2.00;1.90;;;;;;;;;;5031280;28;20213;-73
2022/01/26 01:34:06;;;;;;;1.97;1.87;;;;;;;;;;5030664;28;20218;-73
2022/01/26 01:36:55;;;;;;;1.70;1.60;;;;;;;;;;5034774;28;20233;-73
2022/01/26 01:39:42;;;;;;;1.80;1.70;;;;;;;;;;5033708;28;20728;-73
2022/01/26 01:42:30;;;;;;;1.70;1.60;;;;;;;;;;5031729;28;20317;-73
2022/01/26 01:45:19;;;;;;;1.90;1.80;;;;;;;;;;5030357;28;20211;-73
2022/01/26 01:48:06;;;;;;;1.60;1.53;;;;;;;;;;5033668;28;20211;-73
2022/01/26 01:50:55;;;;;;;1.53;1.20;;;;;;;;;;5029507;28;20269;-73
2022/01/26 01:53:44;;;;;;;1.50;1.40;;;;;;;;;;5033441;28;20209;-73
2022/01/26 01:56:31;;;;;;;1.70;1.60;;;;;;;;;;5032408;28;20233;-73
2022/01/26 01:59:18;;;;;;;1.87;1.77;;;;;;;;;;5032220;28;20752;-73
2022/01/26 02:02:06;;;;;;;1.50;1.40;;;;;;;;;;5030129;28;20726;-73
2022/01/26 02:04:53;;;;;;;1.50;1.40;;;;;;;;;;5032370;28;20370;-73
2022/01/26 02:07:40;;;;;;;1.50;1.40;;;;;;;;;;5032163;28;20627;-72
2022/01/26 02:10:29;;;;;;;1.23;1.23;;;;;;;;;;5030682;28;20221;-72
2022/01/26 02:13:21;;;;;;;1.40;1.30;;;;;;;;;;5033838;28;20202;-73
2022/01/26 02:16:15;;;;;;;1.60;1.50;;;;;;;;;;5032429;28;20207;-73
2022/01/26 02:19:38;;;;;;;1.40;1.30;;;;;;;;;;5031085;28;20242;-73
2022/01/26 02:57:00;;;;;;;1.60;1.50;;;;;;;;;;5030869;28;20273;-73
2022/01/26 03:02:53;;;;;;;1.70;1.60;;;;;;;;;;5029712;28;20318;-72
2022/01/26 03:05:47;;;;;;;1.40;1.30;;;;;;;;;;5030984;28;20213;-73
2022/01/26 03:08:39;;;;;;;2.10;1.43;;;;;;;;;;5032692;28;20225;-72
2022/01/26 03:11:30;;;;;;;1.40;1.30;;;;;;;;;;5031745;28;20630;-73
2022/01/26 03:14:27;;;;;;;1.50;1.40;;;;;;;;;;5029509;28;20330;-73
2022/01/26 03:17:28;;;;;;;1.50;1.40;;;;;;;;;;5029745;28;20674;-71
2022/01/26 03:20:16;;;;;;;1.50;1.40;;;;;;;;;;5029295;28;20217;-73
2022/01/26 03:29:27;;;;;;;1.50;1.30;;;;;;;;;;5030260;28;20208;-73
2022/01/26 03:32:47;;;;;;;1.60;1.50;;;;;;;;;;5030175;28;20238;-73
2022/01/26 03:35:42;;;;;;;1.30;1.23;;;;;;;;;;5029709;28;20605;-72
2022/01/26 03:38:40;;;;;;;2.27;1.30;;;;;;;;;;5029360;28;20685;-72
2022/01/26 03:41:35;;;;;;;1.53;1.20;;;;;;;;;;5029705;28;20209;-72
2022/01/26 03:44:23;;;;;;;1.80;1.70;;;;;;;;;;5026421;28;20336;-73
2022/01/26 03:47:11;;;;;;;1.80;1.47;;;;;;;;;;5032801;28;20202;-73
2022/01/26 03:49:58;;;;;;;1.60;1.50;;;;;;;;;;5031864;28;20270;-72
2022/01/26 03:52:45;;;;;;;1.47;1.30;;;;;;;;;;5031490;28;20762;-73
2022/01/26 03:55:32;;;;;;;1.97;1.40;;;;;;;;;;5031497;28;20291;-73
2022/01/26 03:58:19;;;;;;;2.03;1.80;;;;;;;;;;5031410;28;20193;-71
2022/01/26 04:01:08;;;;;;;2.63;1.50;;;;;;;;;;5029931;28;20212;-73
2022/01/26 04:03:55;;;;;;;1.60;1.20;;;;;;;;;;5028839;28;20228;-73
2022/01/26 04:06:42;;;;;;;1.60;1.50;;;;;;;;;;5026340;28;20201;-73
2022/01/26 04:09:29;;;;;;;2.07;1.63;;;;;;;;;;5030140;28;20212;-72
2022/01/26 04:12:16;;;;;;;2.10;1.60;;;;;;;;;;5030505;28;20208;-73
2022/01/26 04:15:11;;;;;;;1.70;1.60;;;;;;;;;;5030438;28;20286;-73
2022/01/26 04:18:01;;;;;;;1.53;1.43;;;;;;;;;;5030983;28;20208;-72
2022/01/26 04:20:52;;;;;;;1.93;1.40;;;;;;;;;;5029435;28;20207;-73
2022/01/26 04:23:46;;;;;;;1.60;1.50;;;;;;;;;;5029251;28;20675;-73
2022/01/26 04:26:39;;;;;;;1.40;1.30;;;;;;;;;;5028411;28;20747;-73
2022/01/26 04:29:28;;;;;;;1.47;1.37;;;;;;;;;;5029901;28;20218;-73
2022/01/26 04:32:16;;;;;;;2.27;1.37;;;;;;;;;;5028188;28;20202;-73
2022/01/26 04:35:06;;;;;;;2.63;1.63;;;;;;;;;;5027523;28;20232;-73
2022/01/26 04:38:11;;;;;;;1.50;1.40;;;;;;;;;;5028377;28;20209;-73
2022/01/26 04:41:09;;;;;;;1.43;1.10;;;;;;;;;;5029769;28;20209;-73
2022/01/26 04:44:01;;;;;;;1.60;1.50;;;;;;;;;;5027745;28;20691;-72
2022/01/26 04:46:48;;;;;;;1.70;1.60;;;;;;;;;;5027538;28;20654;-72
2022/01/26 04:49:35;;;;;;;1.97;1.47;;;;;;;;;;5030184;28;20298;-73
2022/01/26 04:52:23;;;;;;;1.77;1.43;;;;;;;;;;5028697;28;20213;-73
2022/01/26 04:55:10;;;;;;;1.67;1.57;;;;;;;;;;5026299;28;20291;-73
2022/01/26 04:57:57;;;;;;;2.10;1.80;;;;;;;;;;5028220;28;20212;-72
2022/01/26 05:00:44;;;;;;;3.13;1.73;;;;;;;;;;5029217;28;20339;-72
2022/01/26 05:03:31;;;;;;;1.70;1.60;;;;;;;;;;5029468;28;20445;-72
2022/01/26 05:06:18;;;;;;;1.73;1.63;;;;;;;;;;5025541;28;20235;-72
2022/01/26 05:09:06;;;;;;;2.47;1.80;;;;;;;;;;5029713;28;20210;-73
2022/01/26 05:11:55;;;;;;;2.70;1.57;;;;;;;;;;5026864;28;20287;-73
2022/01/26 05:14:44;;;;;;;2.30;1.70;;;;;;;;;;5030359;28;20197;-73
2022/01/26 05:17:31;;;;;;;1.70;1.60;;;;;;;;;;5027639;28;20208;-73
2022/01/26 05:20:18;;;;;;;3.03;1.60;;;;;;;;;;5029146;28;20266;-73
2022/01/26 05:23:08;;;;;;;1.80;1.70;;;;;;;;;;5028763;28;20229;-73
2022/01/26 05:25:56;;;;;;;2.77;1.40;;;;;;;;;;5028815;28;20296;-73
2022/01/26 05:28:43;;;;;;;2.50;2.00;;;;;;;;;;5030056;28;20340;-72
2022/01/26 05:31:30;;;;;;;1.93;1.83;;;;;;;;;;5029279;28;20244;-72
2022/01/26 05:34:17;;;;;;;1.97;1.80;;;;;;;;;;5030273;28;20204;-73
2022/01/26 05:37:04;;;;;;;3.17;1.80;;;;;;;;;;5030436;28;20205;-73
2022/01/26 05:39:51;;;;;;;2.27;1.80;;;;;;;;;;5027550;28;20780;-72
2022/01/26 05:42:41;;;;;;;2.00;1.80;;;;;;;;;;5026746;28;20260;-70
2022/01/26 05:45:32;;;;;;;1.60;1.50;;;;;;;;;;5026713;28;20257;-70
2022/01/26 05:48:19;;;;;;;2.60;2.00;;;;;;;;;;5027744;28;20228;-70
2022/01/26 05:51:08;;;;;;;2.07;1.87;;;;;;;;;;5028672;28;20211;-71
2022/01/26 05:53:55;;;;;;;2.10;1.90;;;;;;;;;;5028720;28;20216;-71
2022/01/26 05:56:43;;;;;;;2.33;1.80;;;;;;;;;;5027386;28;20248;-70
2022/01/26 05:59:32;;;;;;;2.20;2.00;;;;;;;;;;5028312;28;20788;-70
2022/01/26 06:02:19;;;;;;;3.40;2.10;;;;;;;;;;5026719;28;20686;-71
2022/01/26 06:05:08;;;;;;;2.20;2.00;;;;;;;;;;5028225;28;20209;-69
2022/01/26 06:07:54;;;;;;;3.77;2.00;;;;;;;;;;5032466;28;20342;-73
2022/01/26 06:10:41;;;;;;;2.83;2.17;;;;;;;;;;5029236;28;20339;-73
2022/01/26 06:13:28;;;;;;;4.30;2.50;;;;;;;;;;5032929;28;20663;-74
2022/01/26 06:16:17;;;;;;;3.37;2.30;;;;;;;;;;5032132;28;20207;-73
2022/01/26 06:19:04;;;;;;;2.27;2.07;;;;;;;;;;5032915;28;20214;-73
2022/01/26 06:21:51;;;;;;;2.90;2.20;;;;;;;;;;5032474;28;20216;-72
2022/01/26 06:24:37;;;;;;;4.80;2.57;;;;;;;;;;5029347;28;20255;-73
2022/01/26 06:27:24;;;;;;;2.43;2.23;;;;;;;;;;5033195;28;20241;-73
2022/01/26 06:30:12;;;;;;;2.73;2.23;;;;;;;;;;5032507;28;20240;-73
2022/01/26 06:33:01;;;;;;;4.20;2.30;;;;;;;;;;5030778;28;20198;-73
2022/01/26 06:35:48;;;;;;;3.53;2.20;;;;;;;;;;5033016;28;20223;-72
2022/01/26 06:38:35;;;;;;;3.97;2.63;;;;;;;;;;5030286;28;20296;-72
2022/01/26 06:41:25;;;;;;;3.67;2.33;;;;;;;;;;5031794;28;20660;-73
2022/01/26 06:44:19;;;;;;;3.40;2.13;;;;;;;;;;5031740;28;20605;-72
2022/01/26 06:47:19;;;;;;;2.77;2.13;;;;;;;;;;5031456;28;20271;-73
2022/01/26 06:50:09;;;;;;;3.10;2.37;;;;;;;;;;5031000;28;20320;-73
2022/01/26 06:52:56;;;;;;;4.27;2.77;;;;;;;;;;5030541;28;20710;-73
2022/01/26 06:55:43;;;;;;;3.23;2.60;;;;;;;;;;5033127;28;20746;-73
2022/01/26 06:58:30;;;;;;;4.90;2.50;;;;;;;;;;5032528;28;20240;-73
2022/01/26 07:01:17;;;;;;;4.57;2.33;;;;;;;;;;5031472;28;20209;-73
2022/01/26 07:04:04;;;;;;;4.03;2.50;;;;;;;;;;5029275;28;20269;-74
2022/01/26 07:06:52;;;;;;;4.57;2.60;;;;;;;;;;5031744;28;20331;-73
2022/01/26 07:09:39;;;;;;;3.10;2.40;;;;;;;;;;5030166;28;20204;-73
2022/01/26 07:12:26;;;;;;;4.80;2.33;;;;;;;;;;5029212;28;20240;-73
2022/01/26 07:21:28;;;;;;;4.37;2.50;;;;;;;;;;5031679;28;20212;-73
2022/01/26 07:24:17;;;;;;;3.57;2.47;;;;;;;;;;5029770;28;20228;-73
2022/01/26 07:27:04;;;;;;;4.27;3.20;;;;;;;;;;5031148;28;20264;-73
2022/01/26 07:29:51;;;;;;;3.43;2.40;;;;;;;;;;5030983;28;20277;-73
2022/01/26 07:32:38;;;;;;;3.83;2.83;;;;;;;;;;5029785;28;20208;-72
2022/01/26 07:35:25;;;;;;;5.80;3.03;;;;;;;;;;5029883;28;20331;-72
2022/01/26 07:38:12;;;;;;;3.20;2.50;;;;;;;;;;5029044;28;20216;-73
2022/01/26 07:41:00;;;;;;;3.93;2.50;;;;;;;;;;5029831;28;20209;-72
2022/01/26 07:43:47;;;;;;;3.13;2.70;;;;;;;;;;5026153;28;20299;-73
2022/01/26 07:46:34;;;;;;;3.53;2.77;;;;;;;;;;5029757;28;20292;-73
2022/01/26 07:49:23;;;;;;;4.10;2.87;;;;;;;;;;5029747;28;20950;-73
2022/01/26 07:52:10;;;;;;;7.07;2.43;;;;;;;;;;5026964;28;20210;-73
2022/01/26 07:54:57;;;;;;;4.53;2.50;;;;;;;;;;5031680;28;20617;-72
2022/01/26 07:57:47;;;;;;;3.67;2.77;;;;;;;;;;5028573;28;20710;-73
2022/01/26 08:00:34;;;;;;;2.93;2.50;;;;;;;;;;5029004;28;20604;-72
2022/01/26 08:03:21;;;;;;;2.80;2.57;;;;;;;;;;5027979;28;20776;-73
2022/01/26 08:06:14;;;;;;;3.63;2.50;;;;;;;;;;5029809;28;20240;-72
2022/01/26 08:09:01;;;;;;;3.20;2.33;;;;;;;;;;5031146;28;20213;-73
2022/01/26 08:11:48;;;;;;;4.53;2.57;;;;;;;;;;5028988;28;20313;-73
2022/01/26 08:14:36;;;;;;;3.57;2.37;;;;;;;;;;5028933;28;20715;-73
2022/01/26 08:17:23;;;;;;;3.53;2.50;;;;;;;;;;5027638;28;20616;-73
2022/01/26 08:20:10;;;;;;;3.50;2.93;;;;;;;;;;5028607;28;20689;-73
2022/01/26 08:22:57;;;;;;;4.77;2.67;;;;;;;;;;5028435;28;20300;-73
2022/01/26 08:25:44;;;;;;;7.57;2.60;;;;;;;;;;5029417;28;20216;-72
2022/01/26 08:28:36;;;;;;;3.63;2.50;;;;;;;;;;5029314;28;20204;-73
2022/01/26 08:31:26;;;;;;;3.83;2.47;;;;;;;;;;5027765;28;20211;-72
2022/01/26 08:34:13;;;;;;;3.33;2.57;;;;;;;;;;5023830;28;20555;-72
2022/01/26 08:37:00;;;;;;;3.87;2.40;;;;;;;;;;5029501;28;20339;-73
2022/01/26 08:39:47;;;;;;;3.30;2.50;;;;;;;;;;5030415;28;20378;-73
2022/01/26 08:42:34;;;;;;;4.40;2.40;;;;;;;;;;5027926;28;20248;-72
2022/01/26 08:45:21;;;;;;;2.57;2.00;;;;;;;;;;5025359;28;20317;-73
2022/01/26 08:48:09;;;;;;;3.63;2.33;;;;;;;;;;5030430;28;20241;-73
2022/01/26 08:50:56;;;;;;;2.80;2.30;;;;;;;;;;5030180;28;20307;-71
2022/01/26 08:53:43;;;;;;;3.27;2.50;;;;;;;;;;5029182;28;20260;-73
2022/01/26 08:56:30;;;;;;;2.33;2.13;;;;;;;;;;5023707;28;20224;-73
2022/01/26 08:59:18;;;;;;;3.07;2.40;;;;;;;;;;5027914;28;20344;-73
2022/01/26 09:02:05;;;;;;;2.23;2.03;;;;;;;;;;5024475;28;20299;-72
2022/01/26 09:04:53;;;;;;;2.57;2.30;;;;;;;;;;5028638;28;20308;-73
2022/01/26 09:07:43;;;;;;;3.13;2.33;;;;;;;;;;5027476;28;20210;-73
2022/01/26 09:10:33;;;;;;;3.30;2.43;;;;;;;;;;5026318;28;20218;-73
2022/01/26 09:13:20;;;;;;;4.07;2.50;;;;;;;;;;5029215;28;20219;-73
2022/01/26 09:16:08;;;;;;;3.20;2.47;;;;;;;;;;5030139;28;20343;-72
2022/01/26 09:18:59;;;;;;;3.93;2.53;;;;;;;;;;5028616;28;20216;-73
2022/01/26 09:21:47;;;;;;;3.27;2.50;;;;;;;;;;5030937;28;20213;-72
2022/01/26 09:24:36;;;;;;;2.87;2.63;;;;;;;;;;5029363;28;20232;-73
2022/01/26 09:27:23;;;;;;;2.53;2.33;;;;;;;;;;5028079;28;20224;-73
2022/01/26 09:30:11;;;;;;;3.67;2.50;;;;;;;;;;5026855;28;20674;-72
2022/01/26 09:32:58;;;;;;;2.93;2.40;;;;;;;;;;5026897;28;20262;-72
2022/01/26 09:35:45;;;;;;;2.83;2.40;;;;;;;;;;5029483;28;20292;-73
2022/01/26 09:38:33;;;;;;;4.50;2.53;;;;;;;;;;5026932;28;21629;-74
2022/01/26 09:41:21;;;;;;;3.47;2.23;;;;;;;;;;5029064;28;20217;-72
2022/01/26 09:44:08;;;;;;;2.80;2.23;;;;;;;;;;5033972;28;20260;-74
2022/01/26 09:46:55;;;;;;;3.53;2.63;;;;;;;;;;5032257;28;20661;-72
2022/01/26 09:49:42;;;;;;;3.00;2.40;;;;;;;;;;5032377;28;20217;-73
2022/01/26 09:52:34;;;;;;;3.07;2.20;;;;;;;;;;5034558;28;20201;-73
2022/01/26 09:55:23;;;;;;;3.77;2.20;;;;;;;;;;5034511;28;20665;-73
2022/01/26 09:58:11;;;;;;;3.83;2.37;;;;;;;;;;5030177;28;20289;-72
2022/01/26 10:00:59;;;;;;;4.03;2.43;;;;;;;;;;5030155;28;20292;-72
2022/01/26 10:03:46;;;;;;;3.43;2.50;;;;;;;;;;5031739;28;20768;-73
2022/01/26 10:06:34;;;;;;;3.97;2.53;;;;;;;;;;5030520;28;20249;-72
2022/01/26 10:09:44;;;;;;;4.07;2.60;;;;;;;;;;5031316;28;20213;-73
2022/01/26 10:15:45;;;;;;;3.17;2.13;;;;;;;;;;5032493;28;20205;-72
2022/01/26 10:18:33;;;;;;;2.77;2.30;;;;;;;;;;5032512;28;20207;-73
2022/01/26 10:21:20;;;;;;;4.33;2.63;;;;;;;;;;5033314;28;20287;-72
2022/01/26 10:24:10;;;;;;;2.67;2.30;;;;;;;;;;5032685;28;20323;-73
2022/01/26 10:27:00;;;;;;;3.63;2.60;;;;;;;;;;5031857;28;20239;-73
2022/01/26 10:29:48;;;;;;;3.13;2.20;;;;;;;;;;5033174;28;20327;-73
2022/01/26 10:32:35;;;;;;;3.40;2.47;;;;;;;;;;5031464;28;20209;-72
2022/01/26 10:35:22;;;;;;;4.87;2.73;;;;;;;;;;5031948;28;20208;-73
2022/01/26 10:38:09;;;;;;;2.50;2.30;;;;;;;;;;5031675;28;20338;-73
2022/01/26 10:40:59;;;;;;;4.10;2.63;;;;;;;;;;5029903;28;20209;-73
2022/01/26 10:43:49;;;;;;;4.57;2.80;;;;;;;;;;5031173;28;20205;-73
2022/01/26 10:46:40;;;;;;;4.30;2.70;;;;;;;;;;5031465;28;20209;-72
2022/01/26 10:49:44;;;;;;;3.13;2.13;;;;;;;;;;5029350;28;20218;-73
2022/01/26 10:52:35;;;;;;;4.23;2.87;;;;;;;;;;5030505;28;20209;-73
2022/01/26 10:55:23;;;;;;;6.53;2.90;;;;;;;;;;5030275;28;20208;-73
2022/01/26 10:58:10;;;;;;;4.63;2.60;;;;;;;;;;5030733;28;20651;-73
2022/01/26 11:00:58;;;;;;;3.43;2.37;;;;;;;;;;5030181;28;20692;-70
2022/01/26 11:03:46;;;;;;;3.73;2.77;;;;;;;;;;5031084;28;20248;-73
2022/01/26 11:06:33;;;;;;;3.33;2.50;;;;;;;;;;5028480;28;20684;-73
2022/01/26 11:09:25;;;;;;;3.83;2.67;;;;;;;;;;5033331;28;20708;-73
2022/01/26 11:12:14;;;;;;;3.73;2.50;;;;;;;;;;5029190;28;20209;-73
2022/01/26 11:15:06;;;;;;;4.33;2.70;;;;;;;;;;5031433;28;20316;-72
2022/01/26 11:18:04;;;;;;;5.10;2.73;;;;;;;;;;5031178;28;20617;-73
2022/01/26 11:20:54;;;;;;;3.50;2.53;;;;;;;;;;5031638;28;20220;-73
2022/01/26 11:23:41;;;;;;;3.53;2.30;;;;;;;;;;5031677;28;20351;-73
2022/01/26 11:26:28;;;;;;;4.03;2.27;;;;;;;;;;5030066;28;20285;-73
2022/01/26 11:29:17;;;;;;;4.10;2.50;;;;;;;;;;5032112;28;20206;-72
2022/01/26 11:32:08;;;;;;;4.37;2.50;;;;;;;;;;5028079;28;20213;-73
2022/01/26 11:34:55;;;;;;;3.17;2.50;;;;;;;;;;5031036;28;20209;-73
2022/01/26 11:37:48;;;;;;;3.70;2.60;;;;;;;;;;5031320;28;20650;-73
2022/01/26 11:46:57;;;;;;;4.07;2.47;;;;;;;;;;5033164;28;20203;-73
2022/01/26 11:49:45;;;;;;;4.23;2.40;;;;;;;;;;5029738;28;20686;-72
2022/01/26 11:52:35;;;;;;;4.13;2.60;;;;;;;;;;5029117;28;20703;-73
2022/01/26 11:55:31;;;;;;;3.87;2.60;;;;;;;;;;5029877;28;20197;-73
2022/01/26 11:58:28;;;;;;;5.30;2.70;;;;;;;;;;5028523;28;20708;-73
2022/01/26 12:01:20;;;;;;;3.60;2.40;;;;;;;;;;5031279;28;20681;-73
2022/01/26 12:04:16;;;;;;;4.50;2.70;;;;;;;;;;5030266;28;20209;-71
2022/01/26 12:07:19;;;;;;;4.10;2.73;;;;;;;;;;5026606;28;20550;-71
2022/01/26 12:10:07;;;;;;;3.70;2.50;;;;;;;;;;5030262;28;20278;-71
2022/01/26 12:13:03;;;;;;;3.07;2.50;;;;;;;;;;5030337;28;20209;-73
2022/01/26 12:15:55;;;;;;;4.33;3.10;;;;;;;;;;5029689;28;20209;-73
2022/01/26 12:18:50;;;;;;;3.13;2.67;;;;;;;;;;5028231;28;20218;-72
2022/01/26 12:34:35;;;;;;;3.37;2.40;;;;;;;;;;5023072;28;20281;-73
2022/01/26 12:37:36;;;;;;;5.00;2.87;;;;;;;;;;5025760;28;20205;-73
2022/01/26 12:43:39;;;;;;;3.27;2.40;;;;;;;;;;5027255;28;20228;-72
2022/01/26 12:46:30;;;;;;;4.47;2.83;;;;;;;;;;5025310;28;20228;-72
2022/01/26 12:49:20;;;;;;;4.03;2.90;;;;;;;;;;5029155;28;20291;-73
2022/01/26 12:52:11;;;;;;;3.67;2.77;;;;;;;;;;5028355;28;20212;-73
2022/01/26 12:54:58;;;;;;;4.90;2.70;;;;;;;;;;5030226;28;20335;-72
2022/01/26 12:57:46;;;;;;;3.80;2.23;;;;;;;;;;5027086;28;20255;-73
2022/01/26 13:00:45;;;;;;;4.13;2.37;;;;;;;;;;5025480;28;20292;-73
2022/01/26 13:03:35;;;;;;;3.40;2.33;;;;;;;;;;5030012;28;20340;-70
2022/01/26 13:06:23;;;;;;;3.80;2.37;;;;;;;;;;5025888;28;20303;-73
2022/01/26 13:09:17;;;;;;;3.50;2.33;;;;;;;;;;5030903;28;20265;-73
2022/01/26 13:12:05;;;;;;;2.97;2.53;;;;;;;;;;5030621;28;20207;-73
2022/01/26 13:15:04;;;;;;;3.43;2.57;;;;;;;;;;5029753;28;20257;-73
2022/01/26 13:17:55;;;;;;;2.67;2.23;;;;;;;;;;5027495;28;20268;-75
2022/01/26 13:20:52;;;;;;;3.53;2.50;;;;;;;;;;5026589;28;20219;-73
2022/01/26 13:23:51;;;;;;;4.27;2.33;;;;;;;;;;5025781;28;20220;-73
2022/01/26 13:26:47;;;;;;;6.87;2.20;;;;;;;;;;5029011;28;20619;-72
2022/01/26 13:29:46;;;;;;;3.27;2.30;;;;;;;;;;5028271;28;20604;-73
2022/01/26 13:33:04;;;;;;;3.53;2.40;;;;;;;;;;5028996;28;20245;-73
2022/01/26 13:36:07;;;;;;;2.47;2.10;;;;;;;;;;5025665;28;20670;-71
2022/01/26 13:39:07;;;;;;;4.43;2.20;;;;;;;;;;5029190;28;20683;-73
2022/01/26 13:42:18;;;;;;;3.77;2.30;;;;;;;;;;5031472;28;20264;-73
2022/01/26 13:48:39;;;;;;;3.37;2.63;;;;;;;;;;5007425;28;20641;-72
2022/01/26 13:51:37;;;;;;;4.10;2.70;;;;;;;;;;5028619;28;20691;-73
2022/01/26 13:54:47;;;;;;;4.30;2.30;;;;;;;;;;5028214;28;20294;-72
2022/01/26 13:58:05;;;;;;;4.07;2.23;;;;;;;;;;5029257;28;20215;-73
2022/01/26 14:00:59;;;;;;;4.00;2.43;;;;;;;;;;5029955;28;20210;-73
2022/01/26 14:03:49;;;;;;;3.03;2.40;;;;;;;;;;5029469;28;20211;-72
2022/01/26 14:06:37;;;;;;;4.10;2.30;;;;;;;;;;5028203;28;20730;-73
2022/01/26 14:09:24;;;;;;;3.67;2.47;;;;;;;;;;5028719;28;20219;-72
2022/01/26 14:12:14;;;;;;;3.77;1.97;;;;;;;;;;5028105;28;20282;-73
2022/01/26 14:15:06;;;;;;;4.73;2.43;;;;;;;;;;5028397;28;20234;-73
2022/01/26 14:18:05;;;;;;;2.93;2.20;;;;;;;;;;5027440;28;20357;-73
2022/01/26 14:20:56;;;;;;;3.70;2.10;;;;;;;;;;5026463;28;20222;-73
2022/01/26 14:23:58;;;;;;;4.27;2.33;;;;;;;;;;5029841;28;20268;-73
2022/01/26 14:26:50;;;;;;;3.37;2.23;;;;;;;;;;5028692;28;20238;-73
2022/01/26 14:29:57;;;;;;;4.03;2.43;;;;;;;;;;5032882;28;20208;-71
2022/01/26 14:33:15;;;;;;;4.40;2.47;;;;;;;;;;5029222;28;20293;-73
2022/01/26 14:52:18;;;;;;;3.10;2.13;;;;;;;;;;5031325;28;20220;-73
2022/01/26 14:55:29;;;;;;;4.63;2.30;;;;;;;;;;5031865;28;20691;-73
2022/01/26 15:21:12;;;;;;;5.57;2.47;;;;;;;;;;5030981;28;20212;-73
2022/01/26 15:40:03;;;;;;;2.73;2.43;;;;;;;;;;5030521;28;20242;-73
2022/01/26 15:51:52;;;;;;;5.00;2.60;;;;;;;;;;5028743;28;20209;-73
2022/01/26 15:57:59;;;;;;;3.73;2.50;;;;;;;;;;5031879;28;20209;-73
2022/01/26 16:07:03;;;;;;;4.73;2.67;;;;;;;;;;5026554;28;20220;-73
2022/01/26 16:16:30;;;;;;;4.17;2.60;;;;;;;;;;5030981;28;20729;-73
2022/01/26 16:37:49;;;;;;;5.20;2.97;;;;;;;;;;5031142;28;20208;-70
2022/01/26 18:04:39;;;;;;;5.63;2.73;;;;;;;;;;5032020;28;20208;-72
2022/01/26 18:16:48;;;;;;;7.47;3.20;;;;;;;;;;5031474;28;20248;-72
2022/01/26 18:26:09;;;;;;;5.40;3.17;;;;;;;;;;5031375;28;20221;-72
2022/01/26 18:32:25;;;;;;;5.83;2.93;;;;;;;;;;4968302;28;20253;-72
2022/01/26 18:50:35;;;;;;;6.80;3.20;;;;;;;;;;5029907;28;20248;-72
2022/01/26 18:53:22;;;;;;;5.13;2.93;;;;;;;;;;5030466;28;20216;-73
2022/01/26 18:56:09;;;;;;;4.57;3.10;;;;;;;;;;5030178;28;20633;-72
2022/01/26 18:58:56;;;;;;;6.87;3.30;;;;;;;;;;5032405;28;20214;-73
2022/01/26 19:01:43;;;;;;;4.63;3.10;;;;;;;;;;5031578;28;20308;-73
2022/01/26 19:04:36;;;;;;;6.93;3.20;;;;;;;;;;5028611;28;20692;-72
2022/01/26 19:07:24;;;;;;;4.93;3.00;;;;;;;;;;5031835;28;20226;-72
2022/01/26 19:10:12;;;;;;;7.60;3.53;;;;;;;;;;5028729;28;20291;-70
2022/01/26 19:12:59;;;;;;;6.03;3.17;;;;;;;;;;5029401;28;20258;-73
2022/01/26 19:15:46;;;;;;;5.33;3.30;;;;;;;;;;5028144;28;20209;-72
2022/01/26 19:18:48;;;;;;;5.33;2.93;;;;;;;;;;5031150;28;20216;-73
2022/01/26 19:21:56;;;;;;;5.40;2.97;;;;;;;;;;5032127;28;20299;-72
2022/01/26 19:24:58;;;;;;;6.40;3.40;;;;;;;;;;5029010;28;20209;-72
2022/01/26 19:27:52;;;;;;;5.97;3.27;;;;;;;;;;5030314;28;20229;-72
2022/01/26 19:41:01;;;;;;;4.90;3.70;;;;;;;;;;5008140;28;20270;-73
2022/01/26 19:43:56;;;;;;;6.70;3.70;;;;;;;;;;5008555;28;20198;-72
2022/01/26 19:47:11;;;;;;;4.90;2.80;;;;;;;;;;5028485;28;20539;-72
2022/01/26 19:53:04;;;;;;;6.23;3.27;;;;;;;;;;5027836;28;20595;-72
2022/01/26 19:55:51;;;;;;;5.63;3.80;;;;;;;;;;5029331;28;20220;-72
2022/01/26 19:58:38;;;;;;;6.07;3.20;;;;;;;;;;5029726;28;20729;-72
2022/01/26 20:01:26;;;;;;;6.40;3.03;;;;;;;;;;5027958;28;20262;-72
2022/01/26 20:04:13;;;;;;;6.03;3.37;;;;;;;;;;5028556;28;20206;-72
2022/01/26 20:07:05;;;;;;;5.23;3.00;;;;;;;;;;5028416;28;20371;-72
2022/01/26 20:09:57;;;;;;;4.13;2.57;;;;;;;;;;5031097;28;20268;-72
2022/01/26 20:12:47;;;;;;;5.77;3.17;;;;;;;;;;5027772;28;20218;-72
2022/01/26 20:15:34;;;;;;;4.20;2.87;;;;;;;;;;5031396;28;20207;-73
2022/01/26 20:18:21;;;;;;;5.57;3.23;;;;;;;;;;5027900;28;20212;-71
2022/01/26 20:21:09;;;;;;;4.43;3.03;;;;;;;;;;5027962;28;20213;-73
2022/01/26 20:23:56;;;;;;;5.93;3.03;;;;;;;;;;5031356;28;20227;-72
2022/01/26 20:26:44;;;;;;;6.13;3.10;;;;;;;;;;5028738;28;20236;-72
2022/01/26 20:29:36;;;;;;;4.70;3.10;;;;;;;;;;5030706;28;20605;-72
2022/01/26 20:32:23;;;;;;;4.77;3.10;;;;;;;;;;5029351;28;20718;-72
2022/01/26 20:35:11;;;;;;;5.80;3.37;;;;;;;;;;5030724;28;20201;-72
2022/01/26 20:37:58;;;;;;;4.07;3.00;;;;;;;;;;5029847;28;20201;-72
2022/01/26 20:40:45;;;;;;;4.37;2.67;;;;;;;;;;5028419;28;20279;-70
2022/01/26 20:43:34;;;;;;;6.00;3.03;;;;;;;;;;5027712;28;20339;-72
2022/01/26 20:46:21;;;;;;;4.63;3.10;;;;;;;;;;5030727;28;20230;-72
2022/01/26 20:49:08;;;;;;;5.30;2.90;;;;;;;;;;5028457;28;20623;-72
2022/01/26 20:51:56;;;;;;;5.97;2.90;;;;;;;;;;5027729;28;20216;-72
2022/01/26 20:54:43;;;;;;;6.87;2.97;;;;;;;;;;5026593;28;20220;-72
2022/01/26 20:57:30;;;;;;;5.70;2.97;;;;;;;;;;5027739;28;20267;-72
2022/01/26 21:00:19;;;;;;;7.70;3.10;;;;;;;;;;5027834;28;20232;-71
2022/01/26 21:03:06;;;;;;;4.90;3.10;;;;;;;;;;5028263;28;20201;-72
2022/01/26 21:05:53;;;;;;;5.20;3.00;;;;;;;;;;5028459;28;20252;-72
2022/01/26 21:08:41;;;;;;;4.70;2.57;;;;;;;;;;5030412;28;20223;-72
2022/01/26 21:11:28;;;;;;;4.13;2.50;;;;;;;;;;5026281;28;20294;-72
2022/01/26 21:14:15;;;;;;;5.20;3.23;;;;;;;;;;5026932;28;20285;-72
2022/01/26 21:17:04;;;;;;;5.57;3.07;;;;;;;;;;5027062;28;20204;-72
2022/01/26 21:19:51;;;;;;;4.97;2.50;;;;;;;;;;5030368;28;20278;-72
2022/01/26 21:22:38;;;;;;;4.90;3.27;;;;;;;;;;5029056;28;20262;-72
2022/01/26 21:25:25;;;;;;;5.90;2.80;;;;;;;;;;5027646;28;20609;-72
2022/01/26 21:28:12;;;;;;;4.30;2.87;;;;;;;;;;5028467;28;20255;-73
2022/01/26 21:30:59;;;;;;;5.83;2.97;;;;;;;;;;5029051;28;20294;-72
2022/01/26 21:33:48;;;;;;;4.07;2.80;;;;;;;;;;5029009;28;20688;-73
2022/01/26 21:36:35;;;;;;;4.93;2.87;;;;;;;;;;5030452;28;20205;-73
2022/01/26 21:39:22;;;;;;;4.53;2.97;;;;;;;;;;5031068;28;20317;-72
2022/01/26 21:42:09;;;;;;;4.93;2.93;;;;;;;;;;5029987;28;20259;-73
2022/01/26 21:44:56;;;;;;;3.93;2.70;;;;;;;;;;5032532;28;20612;-72
2022/01/26 21:47:43;;;;;;;4.67;2.97;;;;;;;;;;5029881;28;20577;-72
2022/01/26 21:50:31;;;;;;;5.17;2.87;;;;;;;;;;5030695;28;20220;-72
2022/01/26 21:53:18;;;;;;;6.23;2.90;;;;;;;;;;5032410;28;20660;-73
2022/01/26 21:56:05;;;;;;;5.13;3.20;;;;;;;;;;5032144;28;20293;-73
2022/01/26 21:58:53;;;;;;;4.73;3.03;;;;;;;;;;5029619;28;20243;-72
2022/01/26 22:01:39;;;;;;;4.57;2.90;;;;;;;;;;5032039;28;20264;-71
2022/01/26 22:04:26;;;;;;;4.77;2.97;;;;;;;;;;5029277;28;20205;-72
2022/01/26 22:07:16;;;;;;;4.80;3.17;;;;;;;;;;5032867;28;20225;-73
2022/01/26 22:10:04;;;;;;;4.43;2.60;;;;;;;;;;5030055;28;20657;-72
2022/01/26 22:12:51;;;;;;;7.10;3.30;;;;;;;;;;5030342;28;20220;-72
2022/01/26 22:15:38;;;;;;;5.23;3.10;;;;;;;;;;5032497;28;20213;-73
2022/01/26 22:18:25;;;;;;;5.93;3.17;;;;;;;;;;5029386;28;20217;-72
2022/01/26 22:21:13;;;;;;;4.33;3.07;;;;;;;;;;5031854;28;20300;-73
2022/01/26 22:24:06;;;;;;;7.00;3.50;;;;;;;;;;5031929;28;20215;-73
2022/01/26 22:26:53;;;;;;;6.37;3.10;;;;;;;;;;5029805;28;20318;-71